createdAt,value
2022-11-23T11:00:17.855Z,1.61
2022-11-23T11:03:02.606Z,1.53
2022-11-23T11:06:08.108Z,1.56
2022-11-23T11:08:53.008Z,1.60
2022-11-23T11:11:38.425Z,1.61
2022-11-23T11:14:23.746Z,1.57
2022-11-23T11:17:08.740Z,1.58
2022-11-23T11:19:53.738Z,1.60
2022-11-23T11:22:42.080Z,1.30
2022-11-23T11:25:29.919Z,1.51
2022-11-23T11:28:15.359Z,1.35
2022-11-23T11:31:00.851Z,1.35
2022-11-23T11:33:45.731Z,1.27
2022-11-23T11:36:30.659Z,1.28
2022-11-23T11:39:18.703Z,1.20
2022-11-23T11:42:04.482Z,1.41
2022-11-23T11:44:49.322Z,1.34
2022-11-23T11:47:34.142Z,1.33
2022-11-23T11:50:18.979Z,1.35
2022-11-23T11:53:04.126Z,1.20
2022-11-23T11:55:49.516Z,1.33
2022-11-23T11:58:36.784Z,1.36
2022-11-23T12:01:26.807Z,1.36
2022-11-23T12:04:12.099Z,1.20
2022-11-23T12:06:57.278Z,1.36
2022-11-23T12:09:42.030Z,1.39
2022-11-23T12:12:29.882Z,1.37
2022-11-23T12:15:33.630Z,1.29
2022-11-23T12:18:20.565Z,1.54
2022-11-23T12:21:05.721Z,1.45
2022-11-23T12:23:51.079Z,1.46
2022-11-23T12:26:35.849Z,1.31
2022-11-23T12:29:20.739Z,1.33
2022-11-23T12:32:05.610Z,1.40
2022-11-23T12:34:50.639Z,1.42
2022-11-23T12:37:35.602Z,1.43
2022-11-23T12:40:20.493Z,1.20
2022-11-23T12:43:05.788Z,1.45
2022-11-23T12:45:51.208Z,1.28
2022-11-23T12:48:36.488Z,1.24
2022-11-23T12:51:21.298Z,1.34
2022-11-23T12:54:06.340Z,1.73
2022-11-23T12:56:51.620Z,1.55
2022-11-23T12:59:36.559Z,1.66
2022-11-23T13:02:22.086Z,1.44
2022-11-23T13:05:07.276Z,1.50
2022-11-23T13:07:52.248Z,1.62
2022-11-23T13:10:36.996Z,1.53
2022-11-23T13:13:21.865Z,1.34
2022-11-23T13:16:06.795Z,1.47
2022-11-23T13:18:52.077Z,1.42
2022-11-23T13:21:37.203Z,1.41
2022-11-23T13:24:22.783Z,1.28
2022-11-23T13:27:08.475Z,1.40
2022-11-23T13:29:53.746Z,1.36
2022-11-23T13:32:39.234Z,1.29
2022-11-23T13:35:27.012Z,1.23
2022-11-23T13:38:12.126Z,1.26
2022-11-23T13:40:57.339Z,1.30
2022-11-23T13:43:42.865Z,1.44
2022-11-23T20:05:27.176Z,2.19
2022-11-23T20:08:12.354Z,1.93
2022-11-23T20:10:57.453Z,2.11
2022-11-23T20:13:42.727Z,1.96
2022-11-23T20:16:28.674Z,2.02
2022-11-23T20:19:14.099Z,1.95
2022-11-23T20:21:59.318Z,1.92
2022-11-23T20:24:44.269Z,2.27
2022-11-23T20:27:29.489Z,1.92
2022-11-23T20:30:14.595Z,1.84
2022-11-23T20:32:59.471Z,2.12
2022-11-23T20:35:44.473Z,2.16
2022-11-23T20:38:29.458Z,1.92
2022-11-23T20:41:14.468Z,1.95
2022-11-23T20:43:59.761Z,2.14
2022-11-23T20:47:01.181Z,2.00
2022-11-23T20:49:46.878Z,1.97
2022-11-23T20:52:32.281Z,1.97
2022-11-23T20:55:17.377Z,1.89
2022-11-23T20:58:02.163Z,1.88
2022-11-23T21:00:51.414Z,1.70
2022-11-23T21:03:37.053Z,1.88
2022-11-23T21:06:22.470Z,1.85
2022-11-23T21:09:07.490Z,1.70
2022-11-23T21:11:52.837Z,1.73
2022-11-23T21:14:37.946Z,1.65
2022-11-23T21:17:23.298Z,1.92
2022-11-23T21:20:08.219Z,1.71
2022-11-23T21:22:53.123Z,1.70
2022-11-23T21:25:37.841Z,1.88
2022-11-23T21:28:23.285Z,1.76
2022-11-23T21:31:08.545Z,1.69
2022-11-23T21:33:54.234Z,1.78
2022-11-23T21:36:40.487Z,1.64
2022-11-23T21:39:25.895Z,1.51
2022-11-23T21:42:11.086Z,1.70
2022-11-23T21:44:56.606Z,1.68
